sensor_id;sensor_type;location;lat;lon;timestamp;P1;durP1;ratioP1;P2;durP2;ratioP2
22186;SDS011;11259;52.146;12.844;2023-05-07T00:02:09;3.92;;;2.83;;
22186;SDS011;11259;52.146;12.844;2023-05-07T00:04:34;4.57;;;2.92;;
22186;SDS011;11259;52.146;12.844;2023-05-07T00:06:59;3.65;;;2.58;;
22186;SDS011;11259;52.146;12.844;2023-05-07T00:09:25;2.88;;;2.60;;
22186;SDS011;11259;52.146;12.844;2023-05-07T00:11:50;3.22;;;2.47;;
22186;SDS011;11259;52.146;12.844;2023-05-07T00:14:15;3.83;;;2.67;;
22186;SDS011;11259;52.146;12.844;2023-05-07T00:16:41;7.43;;;2.45;;
22186;SDS011;11259;52.146;12.844;2023-05-07T00:19:07;4.72;;;2.47;;
22186;SDS011;11259;52.146;12.844;2023-05-07T00:21:33;4.20;;;2.72;;
22186;SDS011;11259;52.146;12.844;2023-05-07T00:23:58;2.92;;;2.35;;
22186;SDS011;11259;52.146;12.844;2023-05-07T00:26:23;2.13;;;1.85;;
22186;SDS011;11259;52.146;12.844;2023-05-07T00:28:49;3.65;;;2.65;;
22186;SDS011;11259;52.146;12.844;2023-05-07T00:31:14;2.47;;;2.20;;
22186;SDS011;11259;52.146;12.844;2023-05-07T00:33:39;3.03;;;2.40;;
22186;SDS011;11259;52.146;12.844;2023-05-07T00:36:06;2.72;;;2.20;;
22186;SDS011;11259;52.146;12.844;2023-05-07T00:38:32;4.13;;;2.78;;
22186;SDS011;11259;52.146;12.844;2023-05-07T00:40:57;3.95;;;2.45;;
22186;SDS011;11259;52.146;12.844;2023-05-07T00:43:22;3.45;;;2.60;;
22186;SDS011;11259;52.146;12.844;2023-05-07T00:45:48;3.67;;;2.88;;
22186;SDS011;11259;52.146;12.844;2023-05-07T00:48:13;3.92;;;2.78;;
22186;SDS011;11259;52.146;12.844;2023-05-07T00:50:39;5.60;;;3.15;;
22186;SDS011;11259;52.146;12.844;2023-05-07T00:53:05;3.40;;;2.35;;
22186;SDS011;11259;52.146;12.844;2023-05-07T00:55:32;3.17;;;2.88;;
22186;SDS011;11259;52.146;12.844;2023-05-07T00:57:57;4.25;;;2.70;;
22186;SDS011;11259;52.146;12.844;2023-05-07T01:00:23;3.67;;;2.97;;
22186;SDS011;11259;52.146;12.844;2023-05-07T01:02:48;3.58;;;2.80;;
22186;SDS011;11259;52.146;12.844;2023-05-07T01:05:14;4.20;;;3.08;;
22186;SDS011;11259;52.146;12.844;2023-05-07T01:07:40;4.63;;;2.90;;
22186;SDS011;11259;52.146;12.844;2023-05-07T01:10:08;3.58;;;2.85;;
22186;SDS011;11259;52.146;12.844;2023-05-07T01:12:34;4.95;;;2.47;;
22186;SDS011;11259;52.146;12.844;2023-05-07T01:15:00;3.25;;;2.88;;
22186;SDS011;11259;52.146;12.844;2023-05-07T01:17:26;5.72;;;3.28;;
22186;SDS011;11259;52.146;12.844;2023-05-07T01:19:51;2.65;;;2.45;;
22186;SDS011;11259;52.146;12.844;2023-05-07T01:22:17;4.85;;;3.05;;
22186;SDS011;11259;52.146;12.844;2023-05-07T01:24:53;3.60;;;2.88;;
22186;SDS011;11259;52.146;12.844;2023-05-07T01:27:19;3.90;;;3.28;;
22186;SDS011;11259;52.146;12.844;2023-05-07T01:29:44;3.03;;;2.70;;
22186;SDS011;11259;52.146;12.844;2023-05-07T01:32:09;6.60;;;2.05;;
22186;SDS011;11259;52.146;12.844;2023-05-07T01:34:35;3.28;;;2.78;;
22186;SDS011;11259;52.146;12.844;2023-05-07T01:37:01;5.40;;;3.00;;
22186;SDS011;11259;52.146;12.844;2023-05-07T01:39:29;3.42;;;2.80;;
22186;SDS011;11259;52.146;12.844;2023-05-07T01:41:55;4.28;;;2.88;;
22186;SDS011;11259;52.146;12.844;2023-05-07T01:44:20;3.33;;;2.53;;
22186;SDS011;11259;52.146;12.844;2023-05-07T01:46:46;3.10;;;2.40;;
22186;SDS011;11259;52.146;12.844;2023-05-07T01:49:12;4.75;;;2.50;;
22186;SDS011;11259;52.146;12.844;2023-05-07T01:51:38;7.40;;;3.97;;
22186;SDS011;11259;52.146;12.844;2023-05-07T01:54:03;3.88;;;2.63;;
22186;SDS011;11259;52.146;12.844;2023-05-07T01:56:30;3.97;;;2.40;;
22186;SDS011;11259;52.146;12.844;2023-05-07T01:58:56;4.43;;;2.80;;
22186;SDS011;11259;52.146;12.844;2023-05-07T02:01:21;4.70;;;3.03;;
22186;SDS011;11259;52.146;12.844;2023-05-07T02:03:46;3.50;;;2.97;;
22186;SDS011;11259;52.146;12.844;2023-05-07T02:06:12;4.53;;;2.58;;
22186;SDS011;11259;52.146;12.844;2023-05-07T02:08:37;5.78;;;3.38;;
22186;SDS011;11259;52.146;12.844;2023-05-07T02:11:02;3.95;;;3.53;;
22186;SDS011;11259;52.146;12.844;2023-05-07T02:13:29;4.97;;;3.17;;
22186;SDS011;11259;52.146;12.844;2023-05-07T02:15:57;4.60;;;3.17;;
22186;SDS011;11259;52.146;12.844;2023-05-07T02:18:22;3.97;;;2.35;;
22186;SDS011;11259;52.146;12.844;2023-05-07T02:20:47;3.42;;;3.13;;
22186;SDS011;11259;52.146;12.844;2023-05-07T02:23:13;3.40;;;2.53;;
22186;SDS011;11259;52.146;12.844;2023-05-07T02:25:38;3.85;;;2.30;;
22186;SDS011;11259;52.146;12.844;2023-05-07T02:28:03;3.42;;;2.53;;
22186;SDS011;11259;52.146;12.844;2023-05-07T02:30:31;4.10;;;2.70;;
22186;SDS011;11259;52.146;12.844;2023-05-07T02:32:56;2.83;;;2.45;;
22186;SDS011;11259;52.146;12.844;2023-05-07T02:35:22;4.00;;;2.72;;
22186;SDS011;11259;52.146;12.844;2023-05-07T02:37:49;2.90;;;2.33;;
22186;SDS011;11259;52.146;12.844;2023-05-07T02:40:14;2.33;;;1.80;;
22186;SDS011;11259;52.146;12.844;2023-05-07T02:42:39;2.92;;;2.28;;
22186;SDS011;11259;52.146;12.844;2023-05-07T02:45:05;3.40;;;2.78;;
22186;SDS011;11259;52.146;12.844;2023-05-07T02:47:32;3.60;;;2.03;;
22186;SDS011;11259;52.146;12.844;2023-05-07T02:49:58;3.30;;;2.40;;
22186;SDS011;11259;52.146;12.844;2023-05-07T02:52:23;4.32;;;1.90;;
22186;SDS011;11259;52.146;12.844;2023-05-07T02:54:48;3.20;;;2.72;;
22186;SDS011;11259;52.146;12.844;2023-05-07T02:57:14;2.50;;;2.25;;
22186;SDS011;11259;52.146;12.844;2023-05-07T02:59:39;2.60;;;1.90;;
22186;SDS011;11259;52.146;12.844;2023-05-07T03:02:04;2.70;;;2.20;;
22186;SDS011;11259;52.146;12.844;2023-05-07T03:04:31;3.00;;;2.17;;
22186;SDS011;11259;52.146;12.844;2023-05-07T03:06:56;2.75;;;2.08;;
22186;SDS011;11259;52.146;12.844;2023-05-07T03:09:22;2.45;;;1.90;;
22186;SDS011;11259;52.146;12.844;2023-05-07T03:11:47;2.47;;;2.00;;
22186;SDS011;11259;52.146;12.844;2023-05-07T03:14:12;3.67;;;2.25;;
22186;SDS011;11259;52.146;12.844;2023-05-07T03:16:38;3.53;;;2.17;;
22186;SDS011;11259;52.146;12.844;2023-05-07T03:19:03;3.03;;;2.20;;
22186;SDS011;11259;52.146;12.844;2023-05-07T03:21:30;2.15;;;1.95;;
22186;SDS011;11259;52.146;12.844;2023-05-07T03:23:55;2.85;;;2.10;;
22186;SDS011;11259;52.146;12.844;2023-05-07T03:26:20;3.70;;;2.33;;
22186;SDS011;11259;52.146;12.844;2023-05-07T03:28:46;3.03;;;2.53;;
22186;SDS011;11259;52.146;12.844;2023-05-07T03:31:11;2.58;;;2.03;;
22186;SDS011;11259;52.146;12.844;2023-05-07T03:33:37;2.08;;;1.80;;
22186;SDS011;11259;52.146;12.844;2023-05-07T03:36:13;3.38;;;1.95;;
22186;SDS011;11259;52.146;12.844;2023-05-07T03:38:40;4.35;;;2.33;;
22186;SDS011;11259;52.146;12.844;2023-05-07T03:41:05;2.80;;;2.20;;
22186;SDS011;11259;52.146;12.844;2023-05-07T03:43:31;3.22;;;2.92;;
22186;SDS011;11259;52.146;12.844;2023-05-07T03:45:56;4.22;;;2.40;;
22186;SDS011;11259;52.146;12.844;2023-05-07T03:48:21;2.60;;;2.35;;
22186;SDS011;11259;52.146;12.844;2023-05-07T03:50:47;3.72;;;2.58;;
22186;SDS011;11259;52.146;12.844;2023-05-07T03:53:12;4.53;;;3.03;;
22186;SDS011;11259;52.146;12.844;2023-05-07T03:55:39;3.60;;;2.58;;
22186;SDS011;11259;52.146;12.844;2023-05-07T03:58:04;2.83;;;1.80;;
22186;SDS011;11259;52.146;12.844;2023-05-07T04:00:29;3.13;;;2.40;;
22186;SDS011;11259;52.146;12.844;2023-05-07T04:02:55;2.67;;;2.30;;
22186;SDS011;11259;52.146;12.844;2023-05-07T04:05:20;2.08;;;1.85;;
22186;SDS011;11259;52.146;12.844;2023-05-07T04:07:46;3.85;;;2.15;;
22186;SDS011;11259;52.146;12.844;2023-05-07T04:10:11;7.60;;;2.65;;
22186;SDS011;11259;52.146;12.844;2023-05-07T04:12:38;3.28;;;2.03;;
22186;SDS011;11259;52.146;12.844;2023-05-07T04:15:03;2.80;;;2.25;;
22186;SDS011;11259;52.146;12.844;2023-05-07T04:17:29;3.63;;;2.03;;
22186;SDS011;11259;52.146;12.844;2023-05-07T04:19:54;2.95;;;2.38;;
22186;SDS011;11259;52.146;12.844;2023-05-07T04:22:20;4.53;;;2.30;;
22186;SDS011;11259;52.146;12.844;2023-05-07T04:24:45;2.95;;;2.38;;
22186;SDS011;11259;52.146;12.844;2023-05-07T04:27:10;2.50;;;2.30;;
22186;SDS011;11259;52.146;12.844;2023-05-07T04:29:37;3.60;;;2.65;;
22186;SDS011;11259;52.146;12.844;2023-05-07T04:32:02;3.35;;;2.70;;
22186;SDS011;11259;52.146;12.844;2023-05-07T04:34:28;3.63;;;3.10;;
22186;SDS011;11259;52.146;12.844;2023-05-07T04:36:53;4.63;;;1.90;;
22186;SDS011;11259;52.146;12.844;2023-05-07T04:39:18;2.95;;;2.60;;
22186;SDS011;11259;52.146;12.844;2023-05-07T04:41:44;3.40;;;1.98;;
22186;SDS011;11259;52.146;12.844;2023-05-07T04:44:09;2.95;;;2.13;;
22186;SDS011;11259;52.146;12.844;2023-05-07T04:46:36;2.67;;;1.98;;
22186;SDS011;11259;52.146;12.844;2023-05-07T04:49:01;2.45;;;2.00;;
22186;SDS011;11259;52.146;12.844;2023-05-07T04:51:26;2.97;;;2.10;;
22186;SDS011;11259;52.146;12.844;2023-05-07T04:53:52;2.53;;;1.98;;
22186;SDS011;11259;52.146;12.844;2023-05-07T04:56:17;2.15;;;1.95;;
22186;SDS011;11259;52.146;12.844;2023-05-07T04:58:42;2.53;;;2.28;;
22186;SDS011;11259;52.146;12.844;2023-05-07T05:01:08;2.40;;;1.92;;
22186;SDS011;11259;52.146;12.844;2023-05-07T05:03:34;2.08;;;1.80;;
22186;SDS011;11259;52.146;12.844;2023-05-07T05:06:00;2.63;;;2.05;;
22186;SDS011;11259;52.146;12.844;2023-05-07T05:08:25;2.20;;;1.70;;
22186;SDS011;11259;52.146;12.844;2023-05-07T05:10:53;1.85;;;1.45;;
22186;SDS011;11259;52.146;12.844;2023-05-07T05:13:18;3.58;;;2.30;;
22186;SDS011;11259;52.146;12.844;2023-05-07T05:15:44;2.85;;;1.88;;
22186;SDS011;11259;52.146;12.844;2023-05-07T05:18:09;2.50;;;1.80;;
22186;SDS011;11259;52.146;12.844;2023-05-07T05:20:36;3.10;;;2.10;;
22186;SDS011;11259;52.146;12.844;2023-05-07T05:23:01;1.70;;;1.40;;
22186;SDS011;11259;52.146;12.844;2023-05-07T05:25:27;3.38;;;2.22;;
22186;SDS011;11259;52.146;12.844;2023-05-07T05:27:52;2.97;;;2.67;;
22186;SDS011;11259;52.146;12.844;2023-05-07T05:30:17;2.55;;;1.98;;
22186;SDS011;11259;52.146;12.844;2023-05-07T05:32:43;2.38;;;1.90;;
22186;SDS011;11259;52.146;12.844;2023-05-07T05:35:08;2.05;;;1.80;;
22186;SDS011;11259;52.146;12.844;2023-05-07T05:37:35;3.10;;;1.92;;
22186;SDS011;11259;52.146;12.844;2023-05-07T05:40:00;3.40;;;1.63;;
22186;SDS011;11259;52.146;12.844;2023-05-07T05:42:25;2.30;;;1.63;;
22186;SDS011;11259;52.146;12.844;2023-05-07T05:44:51;1.90;;;1.55;;
22186;SDS011;11259;52.146;12.844;2023-05-07T05:47:16;4.20;;;1.55;;
22186;SDS011;11259;52.146;12.844;2023-05-07T05:49:41;2.97;;;1.98;;
22186;SDS011;11259;52.146;12.844;2023-05-07T05:52:07;2.03;;;1.83;;
22186;SDS011;11259;52.146;12.844;2023-05-07T05:54:33;3.55;;;2.45;;
22186;SDS011;11259;52.146;12.844;2023-05-07T05:56:59;1.90;;;1.75;;
22186;SDS011;11259;52.146;12.844;2023-05-07T05:59:24;2.47;;;2.10;;
22186;SDS011;11259;52.146;12.844;2023-05-07T06:01:49;2.50;;;2.30;;
22186;SDS011;11259;52.146;12.844;2023-05-07T06:04:15;2.00;;;1.80;;
22186;SDS011;11259;52.146;12.844;2023-05-07T06:06:40;2.25;;;1.92;;
22186;SDS011;11259;52.146;12.844;2023-05-07T06:09:06;2.15;;;1.95;;
22186;SDS011;11259;52.146;12.844;2023-05-07T06:11:32;1.98;;;1.83;;
22186;SDS011;11259;52.146;12.844;2023-05-07T06:13:58;2.88;;;2.20;;
22186;SDS011;11259;52.146;12.844;2023-05-07T06:16:24;2.33;;;1.80;;
22186;SDS011;11259;52.146;12.844;2023-05-07T06:18:49;2.08;;;1.50;;
22186;SDS011;11259;52.146;12.844;2023-05-07T06:21:14;2.45;;;1.92;;
22186;SDS011;11259;52.146;12.844;2023-05-07T06:23:40;3.33;;;2.03;;
22186;SDS011;11259;52.146;12.844;2023-05-07T06:26:05;3.08;;;2.25;;
22186;SDS011;11259;52.146;12.844;2023-05-07T06:28:32;3.20;;;1.70;;
22186;SDS011;11259;52.146;12.844;2023-05-07T06:31:10;3.35;;;1.73;;
22186;SDS011;11259;52.146;12.844;2023-05-07T06:33:36;2.20;;;2.00;;
22186;SDS011;11259;52.146;12.844;2023-05-07T06:36:01;1.67;;;1.50;;
22186;SDS011;11259;52.146;12.844;2023-05-07T06:38:26;3.25;;;2.47;;
22186;SDS011;11259;52.146;12.844;2023-05-07T06:40:52;3.22;;;2.10;;
22186;SDS011;11259;52.146;12.844;2023-05-07T06:43:17;2.20;;;2.00;;
22186;SDS011;11259;52.146;12.844;2023-05-07T06:45:44;2.20;;;1.80;;
22186;SDS011;11259;52.146;12.844;2023-05-07T06:48:09;2.55;;;1.88;;
22186;SDS011;11259;52.146;12.844;2023-05-07T06:50:34;2.28;;;1.92;;
22186;SDS011;11259;52.146;12.844;2023-05-07T06:53:00;2.70;;;2.05;;
22186;SDS011;11259;52.146;12.844;2023-05-07T06:55:25;2.13;;;1.60;;
22186;SDS011;11259;52.146;12.844;2023-05-07T06:57:50;5.55;;;2.83;;
22186;SDS011;11259;52.146;12.844;2023-05-07T07:00:16;2.63;;;2.03;;
22186;SDS011;11259;52.146;12.844;2023-05-07T07:02:43;2.88;;;2.58;;
22186;SDS011;11259;52.146;12.844;2023-05-07T07:05:08;3.47;;;1.90;;
22186;SDS011;11259;52.146;12.844;2023-05-07T07:07:34;2.05;;;1.63;;
22186;SDS011;11259;52.146;12.844;2023-05-07T07:09:59;2.22;;;2.13;;
22186;SDS011;11259;52.146;12.844;2023-05-07T07:12:24;2.78;;;1.90;;
22186;SDS011;11259;52.146;12.844;2023-05-07T07:14:50;3.42;;;2.40;;
22186;SDS011;11259;52.146;12.844;2023-05-07T07:17:15;2.65;;;2.13;;
22186;SDS011;11259;52.146;12.844;2023-05-07T07:19:42;3.97;;;2.83;;
22186;SDS011;11259;52.146;12.844;2023-05-07T07:22:07;5.05;;;2.05;;
22186;SDS011;11259;52.146;12.844;2023-05-07T07:24:32;3.38;;;2.45;;
22186;SDS011;11259;52.146;12.844;2023-05-07T07:26:58;5.57;;;4.20;;
22186;SDS011;11259;52.146;12.844;2023-05-07T07:29:23;4.93;;;3.20;;
22186;SDS011;11259;52.146;12.844;2023-05-07T07:31:48;5.72;;;3.20;;
22186;SDS011;11259;52.146;12.844;2023-05-07T07:34:14;7.18;;;5.60;;
22186;SDS011;11259;52.146;12.844;2023-05-07T07:36:40;4.22;;;2.72;;
22186;SDS011;11259;52.146;12.844;2023-05-07T07:39:06;3.25;;;2.45;;
22186;SDS011;11259;52.146;12.844;2023-05-07T07:41:31;4.63;;;2.88;;
22186;SDS011;11259;52.146;12.844;2023-05-07T07:43:56;2.35;;;2.15;;
22186;SDS011;11259;52.146;12.844;2023-05-07T07:46:22;2.38;;;2.15;;
22186;SDS011;11259;52.146;12.844;2023-05-07T07:48:47;1.77;;;1.38;;
22186;SDS011;11259;52.146;12.844;2023-05-07T07:51:12;3.33;;;2.38;;
22186;SDS011;11259;52.146;12.844;2023-05-07T07:53:39;3.33;;;2.42;;
22186;SDS011;11259;52.146;12.844;2023-05-07T07:56:04;3.22;;;2.45;;
22186;SDS011;11259;52.146;12.844;2023-05-07T07:58:30;1.73;;;1.38;;
22186;SDS011;11259;52.146;12.844;2023-05-07T08:00:55;2.47;;;1.85;;
22186;SDS011;11259;52.146;12.844;2023-05-07T08:03:20;2.13;;;1.83;;
22186;SDS011;11259;52.146;12.844;2023-05-07T08:05:46;2.85;;;2.20;;
22186;SDS011;11259;52.146;12.844;2023-05-07T08:08:11;3.20;;;2.10;;
22186;SDS011;11259;52.146;12.844;2023-05-07T08:10:38;2.63;;;2.00;;
22186;SDS011;11259;52.146;12.844;2023-05-07T08:13:03;2.00;;;1.73;;
22186;SDS011;11259;52.146;12.844;2023-05-07T08:15:29;2.60;;;1.98;;
22186;SDS011;11259;52.146;12.844;2023-05-07T08:17:54;2.50;;;2.30;;
22186;SDS011;11259;52.146;12.844;2023-05-07T08:20:20;2.65;;;2.38;;
22186;SDS011;11259;52.146;12.844;2023-05-07T08:22:45;2.75;;;2.20;;
22186;SDS011;11259;52.146;12.844;2023-05-07T08:25:10;5.43;;;2.03;;
22186;SDS011;11259;52.146;12.844;2023-05-07T08:27:37;2.38;;;1.77;;
22186;SDS011;11259;52.146;12.844;2023-05-07T08:30:03;2.35;;;2.00;;
22186;SDS011;11259;52.146;12.844;2023-05-07T08:32:28;2.70;;;1.85;;
22186;SDS011;11259;52.146;12.844;2023-05-07T08:34:54;2.17;;;1.67;;
22186;SDS011;11259;52.146;12.844;2023-05-07T08:37:19;1.83;;;1.73;;
22186;SDS011;11259;52.146;12.844;2023-05-07T08:39:45;2.55;;;1.83;;
22186;SDS011;11259;52.146;12.844;2023-05-07T08:42:10;3.05;;;2.75;;
22186;SDS011;11259;52.146;12.844;2023-05-07T08:44:37;1.70;;;1.60;;
22186;SDS011;11259;52.146;12.844;2023-05-07T08:47:03;2.47;;;2.05;;
22186;SDS011;11259;52.146;12.844;2023-05-07T08:49:31;3.50;;;2.80;;
22186;SDS011;11259;52.146;12.844;2023-05-07T08:51:58;1.75;;;1.48;;
22186;SDS011;11259;52.146;12.844;2023-05-07T08:54:23;2.50;;;1.98;;
22186;SDS011;11259;52.146;12.844;2023-05-07T08:56:49;2.22;;;1.80;;
22186;SDS011;11259;52.146;12.844;2023-05-07T08:59:15;1.85;;;1.67;;
22186;SDS011;11259;52.146;12.844;2023-05-07T09:01:41;3.80;;;2.25;;
22186;SDS011;11259;52.146;12.844;2023-05-07T09:04:06;2.88;;;1.52;;
22186;SDS011;11259;52.146;12.844;2023-05-07T09:06:32;2.17;;;1.52;;
22186;SDS011;11259;52.146;12.844;2023-05-07T09:08:57;3.60;;;2.45;;
22186;SDS011;11259;52.146;12.844;2023-05-07T09:11:23;3.85;;;2.05;;
22186;SDS011;11259;52.146;12.844;2023-05-07T09:13:48;1.80;;;1.30;;
22186;SDS011;11259;52.146;12.844;2023-05-07T09:16:14;2.00;;;1.80;;
22186;SDS011;11259;52.146;12.844;2023-05-07T09:18:41;1.63;;;1.48;;
22186;SDS011;11259;52.146;12.844;2023-05-07T09:21:09;2.38;;;1.60;;
22186;SDS011;11259;52.146;12.844;2023-05-07T09:23:34;4.15;;;1.45;;
22186;SDS011;11259;52.146;12.844;2023-05-07T09:26:00;1.80;;;1.70;;
22186;SDS011;11259;52.146;12.844;2023-05-07T09:28:25;1.40;;;1.30;;
22186;SDS011;11259;52.146;12.844;2023-05-07T09:30:51;3.80;;;1.45;;
22186;SDS011;11259;52.146;12.844;2023-05-07T09:33:16;1.33;;;1.20;;
22186;SDS011;11259;52.146;12.844;2023-05-07T09:35:43;1.77;;;1.30;;
22186;SDS011;11259;52.146;12.844;2023-05-07T09:38:08;2.20;;;2.00;;
22186;SDS011;11259;52.146;12.844;2023-05-07T09:40:33;1.45;;;1.35;;
22186;SDS011;11259;52.146;12.844;2023-05-07T09:43:08;1.27;;;1.17;;
22186;SDS011;11259;52.146;12.844;2023-05-07T09:45:34;1.88;;;1.42;;
22186;SDS011;11259;52.146;12.844;2023-05-07T09:47:59;1.30;;;1.20;;
22186;SDS011;11259;52.146;12.844;2023-05-07T09:50:26;1.50;;;1.38;;
22186;SDS011;11259;52.146;12.844;2023-05-07T09:52:54;1.73;;;1.42;;
22186;SDS011;11259;52.146;12.844;2023-05-07T09:55:20;1.63;;;1.50;;
22186;SDS011;11259;52.146;12.844;2023-05-07T09:57:45;1.55;;;1.42;;
22186;SDS011;11259;52.146;12.844;2023-05-07T10:00:13;1.90;;;1.33;;
22186;SDS011;11259;52.146;12.844;2023-05-07T10:02:39;2.03;;;1.42;;
22186;SDS011;11259;52.146;12.844;2023-05-07T10:05:05;2.92;;;1.95;;
22186;SDS011;11259;52.146;12.844;2023-05-07T10:07:30;1.20;;;1.00;;
22186;SDS011;11259;52.146;12.844;2023-05-07T10:09:57;2.28;;;1.58;;
22186;SDS011;11259;52.146;12.844;2023-05-07T10:12:23;1.88;;;1.65;;
22186;SDS011;11259;52.146;12.844;2023-05-07T10:14:49;2.45;;;1.73;;
22186;SDS011;11259;52.146;12.844;2023-05-07T10:17:15;2.42;;;2.03;;
22186;SDS011;11259;52.146;12.844;2023-05-07T10:19:41;1.55;;;1.42;;
22186;SDS011;11259;52.146;12.844;2023-05-07T10:22:07;1.30;;;1.20;;
22186;SDS011;11259;52.146;12.844;2023-05-07T10:24:33;2.53;;;1.73;;
22186;SDS011;11259;52.146;12.844;2023-05-07T10:27:00;1.50;;;1.20;;
22186;SDS011;11259;52.146;12.844;2023-05-07T10:29:29;2.30;;;1.67;;
22186;SDS011;11259;52.146;12.844;2023-05-07T10:31:59;1.67;;;1.38;;
22186;SDS011;11259;52.146;12.844;2023-05-07T10:34:53;1.50;;;1.40;;
22186;SDS011;11259;52.146;12.844;2023-05-07T10:37:20;2.15;;;1.48;;
22186;SDS011;11259;52.146;12.844;2023-05-07T10:39:45;1.92;;;1.77;;
22186;SDS011;11259;52.146;12.844;2023-05-07T10:42:12;1.27;;;1.17;;
22186;SDS011;11259;52.146;12.844;2023-05-07T10:44:38;1.95;;;1.35;;
22186;SDS011;11259;52.146;12.844;2023-05-07T10:47:04;1.02;;;0.93;;
22186;SDS011;11259;52.146;12.844;2023-05-07T10:49:31;2.95;;;1.73;;
22186;SDS011;11259;52.146;12.844;2023-05-07T10:52:13;1.50;;;1.40;;
22186;SDS011;11259;52.146;12.844;2023-05-07T10:54:39;1.75;;;1.38;;
22186;SDS011;11259;52.146;12.844;2023-05-07T11:00:01;1.45;;;1.35;;
22186;SDS011;11259;52.146;12.844;2023-05-07T11:05:25;1.48;;;1.38;;
22186;SDS011;11259;52.146;12.844;2023-05-07T11:07:53;2.15;;;1.65;;
22186;SDS011;11259;52.146;12.844;2023-05-07T11:10:19;3.08;;;2.00;;
22186;SDS011;11259;52.146;12.844;2023-05-07T11:12:52;1.77;;;1.67;;
22186;SDS011;11259;52.146;12.844;2023-05-07T11:15:34;1.80;;;1.67;;
22186;SDS011;11259;52.146;12.844;2023-05-07T11:18:00;1.48;;;1.38;;
22186;SDS011;11259;52.146;12.844;2023-05-07T11:23:12;4.55;;;2.05;;
22186;SDS011;11259;52.146;12.844;2023-05-07T11:26:16;1.55;;;1.45;;
22186;SDS011;11259;52.146;12.844;2023-05-07T11:28:43;1.92;;;1.63;;
22186;SDS011;11259;52.146;12.844;2023-05-07T11:31:09;4.85;;;1.90;;
22186;SDS011;11259;52.146;12.844;2023-05-07T11:33:36;1.27;;;1.17;;
22186;SDS011;11259;52.146;12.844;2023-05-07T11:36:02;1.33;;;1.23;;
22186;SDS011;11259;52.146;12.844;2023-05-07T11:38:28;2.42;;;1.70;;
22186;SDS011;11259;52.146;12.844;2023-05-07T11:40:55;1.67;;;1.58;;
22186;SDS011;11259;52.146;12.844;2023-05-07T11:43:21;1.92;;;1.15;;
22186;SDS011;11259;52.146;12.844;2023-05-07T11:45:48;1.50;;;1.40;;
22186;SDS011;11259;52.146;12.844;2023-05-07T11:48:14;2.03;;;1.83;;
22186;SDS011;11259;52.146;12.844;2023-05-07T11:50:49;1.40;;;1.30;;
22186;SDS011;11259;52.146;12.844;2023-05-07T11:53:15;1.45;;;1.35;;
22186;SDS011;11259;52.146;12.844;2023-05-07T11:55:40;1.58;;;1.25;;
22186;SDS011;11259;52.146;12.844;2023-05-07T11:58:06;1.48;;;1.27;;
22186;SDS011;11259;52.146;12.844;2023-05-07T12:00:31;1.70;;;1.10;;
22186;SDS011;11259;52.146;12.844;2023-05-07T12:02:59;3.95;;;1.80;;
22186;SDS011;11259;52.146;12.844;2023-05-07T12:05:28;1.25;;;1.13;;
22186;SDS011;11259;52.146;12.844;2023-05-07T12:07:55;1.20;;;1.10;;
22186;SDS011;11259;52.146;12.844;2023-05-07T12:10:21;1.38;;;1.25;;
22186;SDS011;11259;52.146;12.844;2023-05-07T12:12:46;0.90;;;0.90;;
22186;SDS011;11259;52.146;12.844;2023-05-07T12:15:15;1.75;;;1.48;;
22186;SDS011;11259;52.146;12.844;2023-05-07T12:17:40;0.82;;;0.82;;
22186;SDS011;11259;52.146;12.844;2023-05-07T12:20:07;1.50;;;1.40;;
22186;SDS011;11259;52.146;12.844;2023-05-07T12:22:33;1.33;;;1.23;;
22186;SDS011;11259;52.146;12.844;2023-05-07T12:24:59;1.60;;;1.50;;
22186;SDS011;11259;52.146;12.844;2023-05-07T12:27:25;2.08;;;1.20;;
22186;SDS011;11259;52.146;12.844;2023-05-07T12:29:50;1.15;;;1.02;;
22186;SDS011;11259;52.146;12.844;2023-05-07T12:32:16;1.70;;;1.10;;
22186;SDS011;11259;52.146;12.844;2023-05-07T12:34:42;1.67;;;1.35;;
22186;SDS011;11259;52.146;12.844;2023-05-07T12:37:09;1.73;;;1.63;;
22186;SDS011;11259;52.146;12.844;2023-05-07T12:39:34;1.13;;;1.02;;
22186;SDS011;11259;52.146;12.844;2023-05-07T12:41:59;1.20;;;1.10;;
22186;SDS011;11259;52.146;12.844;2023-05-07T12:44:25;1.60;;;1.50;;
22186;SDS011;11259;52.146;12.844;2023-05-07T12:46:54;1.27;;;1.13;;
22186;SDS011;11259;52.146;12.844;2023-05-07T12:49:19;1.65;;;1.25;;
22186;SDS011;11259;52.146;12.844;2023-05-07T12:51:46;1.10;;;1.08;;
22186;SDS011;11259;52.146;12.844;2023-05-07T12:54:13;2.05;;;1.58;;
22186;SDS011;11259;52.146;12.844;2023-05-07T12:56:39;1.38;;;1.25;;
22186;SDS011;11259;52.146;12.844;2023-05-07T12:59:04;1.85;;;1.20;;
22186;SDS011;11259;52.146;12.844;2023-05-07T13:01:30;1.52;;;1.30;;
22186;SDS011;11259;52.146;12.844;2023-05-07T13:03:56;2.17;;;1.27;;
22186;SDS011;11259;52.146;12.844;2023-05-07T13:06:25;3.33;;;1.20;;
22186;SDS011;11259;52.146;12.844;2023-05-07T13:08:50;1.48;;;1.05;;
22186;SDS011;11259;52.146;12.844;2023-05-07T13:11:17;1.10;;;1.00;;
22186;SDS011;11259;52.146;12.844;2023-05-07T13:13:42;0.90;;;0.90;;
22186;SDS011;11259;52.146;12.844;2023-05-07T13:16:08;1.10;;;1.00;;
22186;SDS011;11259;52.146;12.844;2023-05-07T13:18:34;1.10;;;1.00;;
22186;SDS011;11259;52.146;12.844;2023-05-07T13:21:00;1.13;;;1.02;;
22186;SDS011;11259;52.146;12.844;2023-05-07T13:23:26;1.17;;;1.08;;
22186;SDS011;11259;52.146;12.844;2023-05-07T13:25:51;1.10;;;1.00;;
22186;SDS011;11259;52.146;12.844;2023-05-07T13:28:19;0.88;;;0.88;;
22186;SDS011;11259;52.146;12.844;2023-05-07T13:30:45;0.88;;;0.88;;
22186;SDS011;11259;52.146;12.844;2023-05-07T13:33:11;1.23;;;1.08;;
22186;SDS011;11259;52.146;12.844;2023-05-07T13:35:36;1.30;;;1.20;;
22186;SDS011;11259;52.146;12.844;2023-05-07T13:38:01;1.13;;;1.02;;
22186;SDS011;11259;52.146;12.844;2023-05-07T13:40:27;0.73;;;0.73;;
22186;SDS011;11259;52.146;12.844;2023-05-07T13:42:52;1.17;;;1.10;;
22186;SDS011;11259;52.146;12.844;2023-05-07T13:45:19;1.23;;;0.98;;
22186;SDS011;11259;52.146;12.844;2023-05-07T13:47:45;0.90;;;0.90;;
22186;SDS011;11259;52.146;12.844;2023-05-07T13:50:11;1.00;;;0.90;;
22186;SDS011;11259;52.146;12.844;2023-05-07T13:52:36;1.00;;;0.90;;
22186;SDS011;11259;52.146;12.844;2023-05-07T13:55:02;1.10;;;1.00;;
22186;SDS011;11259;52.146;12.844;2023-05-07T13:57:28;1.10;;;1.05;;
22186;SDS011;11259;52.146;12.844;2023-05-07T13:59:53;0.93;;;0.80;;
22186;SDS011;11259;52.146;12.844;2023-05-07T14:02:20;1.27;;;1.08;;
22186;SDS011;11259;52.146;12.844;2023-05-07T14:04:45;1.35;;;1.00;;
22186;SDS011;11259;52.146;12.844;2023-05-07T14:07:10;0.93;;;0.90;;
22186;SDS011;11259;52.146;12.844;2023-05-07T14:09:36;1.05;;;0.95;;
22186;SDS011;11259;52.146;12.844;2023-05-07T14:12:01;0.95;;;0.90;;
22186;SDS011;11259;52.146;12.844;2023-05-07T14:14:26;0.88;;;0.88;;
22186;SDS011;11259;52.146;12.844;2023-05-07T14:16:52;0.90;;;0.88;;
22186;SDS011;11259;52.146;12.844;2023-05-07T14:19:18;0.70;;;0.70;;
22186;SDS011;11259;52.146;12.844;2023-05-07T14:21:44;1.30;;;1.20;;
22186;SDS011;11259;52.146;12.844;2023-05-07T14:24:09;0.80;;;0.80;;
22186;SDS011;11259;52.146;12.844;2023-05-07T14:26:35;1.38;;;1.00;;
22186;SDS011;11259;52.146;12.844;2023-05-07T14:29:00;1.05;;;0.98;;
22186;SDS011;11259;52.146;12.844;2023-05-07T14:31:25;1.35;;;1.25;;
22186;SDS011;11259;52.146;12.844;2023-05-07T14:33:51;1.48;;;0.95;;
22186;SDS011;11259;52.146;12.844;2023-05-07T14:36:17;1.00;;;0.90;;